sensor_id;sensor_type;location;lat;lon;timestamp;P1;durP1;ratioP1;P2;durP2;ratioP2
6434;SDS011;3250;42.694;23.278;2023-06-22T00:00:47;24.35;;;16.98;;
6434;SDS011;3250;42.694;23.278;2023-06-22T00:03:12;26.98;;;16.77;;
6434;SDS011;3250;42.694;23.278;2023-06-22T00:05:38;23.42;;;15.38;;
6434;SDS011;3250;42.694;23.278;2023-06-22T00:08:03;28.77;;;16.95;;
6434;SDS011;3250;42.694;23.278;2023-06-22T00:10:30;29.30;;;16.30;;
6434;SDS011;3250;42.694;23.278;2023-06-22T00:12:55;22.30;;;15.73;;
6434;SDS011;3250;42.694;23.278;2023-06-22T00:15:21;20.55;;;14.90;;
6434;SDS011;3250;42.694;23.278;2023-06-22T00:17:46;24.25;;;15.38;;
6434;SDS011;3250;42.694;23.278;2023-06-22T00:20:11;19.33;;;15.18;;
6434;SDS011;3250;42.694;23.278;2023-06-22T00:22:37;20.95;;;16.05;;
6434;SDS011;3250;42.694;23.278;2023-06-22T00:25:05;21.40;;;13.95;;
6434;SDS011;3250;42.694;23.278;2023-06-22T00:27:32;20.33;;;13.77;;
6434;SDS011;3250;42.694;23.278;2023-06-22T00:29:57;22.52;;;14.27;;
6434;SDS011;3250;42.694;23.278;2023-06-22T00:32:22;22.00;;;12.52;;
6434;SDS011;3250;42.694;23.278;2023-06-22T00:34:48;21.65;;;12.68;;
6434;SDS011;3250;42.694;23.278;2023-06-22T00:37:13;20.00;;;13.65;;
6434;SDS011;3250;42.694;23.278;2023-06-22T00:39:39;17.33;;;13.10;;
6434;SDS011;3250;42.694;23.278;2023-06-22T00:42:04;17.60;;;12.82;;
6434;SDS011;3250;42.694;23.278;2023-06-22T00:44:30;17.63;;;13.15;;
6434;SDS011;3250;42.694;23.278;2023-06-22T00:46:55;20.55;;;12.60;;
6434;SDS011;3250;42.694;23.278;2023-06-22T00:49:21;18.23;;;13.02;;
6434;SDS011;3250;42.694;23.278;2023-06-22T00:51:46;15.95;;;11.43;;
6434;SDS011;3250;42.694;23.278;2023-06-22T00:54:12;16.13;;;12.07;;
6434;SDS011;3250;42.694;23.278;2023-06-22T00:56:39;17.33;;;10.88;;
6434;SDS011;3250;42.694;23.278;2023-06-22T00:59:06;18.42;;;11.13;;
6434;SDS011;3250;42.694;23.278;2023-06-22T01:01:31;18.70;;;11.50;;
6434;SDS011;3250;42.694;23.278;2023-06-22T01:03:59;14.90;;;10.13;;
6434;SDS011;3250;42.694;23.278;2023-06-22T01:06:29;15.20;;;10.98;;
6434;SDS011;3250;42.694;23.278;2023-06-22T01:09:09;16.35;;;9.82;;
6434;SDS011;3250;42.694;23.278;2023-06-22T01:11:48;11.48;;;8.88;;
6434;SDS011;3250;42.694;23.278;2023-06-22T01:14:22;15.63;;;9.43;;
6434;SDS011;3250;42.694;23.278;2023-06-22T01:16:53;15.25;;;8.73;;
6434;SDS011;3250;42.694;23.278;2023-06-22T01:19:39;11.88;;;8.25;;
6434;SDS011;3250;42.694;23.278;2023-06-22T01:22:15;12.85;;;8.60;;
6434;SDS011;3250;42.694;23.278;2023-06-22T01:29:51;12.23;;;8.93;;
6434;SDS011;3250;42.694;23.278;2023-06-22T01:32:27;13.77;;;8.23;;
6434;SDS011;3250;42.694;23.278;2023-06-22T01:34:55;10.40;;;8.15;;
6434;SDS011;3250;42.694;23.278;2023-06-22T01:37:22;11.98;;;7.68;;
6434;SDS011;3250;42.694;23.278;2023-06-22T01:39:48;10.82;;;7.32;;
6434;SDS011;3250;42.694;23.278;2023-06-22T01:42:15;12.13;;;7.18;;
6434;SDS011;3250;42.694;23.278;2023-06-22T01:44:41;12.50;;;7.75;;
6434;SDS011;3250;42.694;23.278;2023-06-22T01:47:08;13.10;;;8.00;;
6434;SDS011;3250;42.694;23.278;2023-06-22T01:49:33;9.93;;;8.48;;
6434;SDS011;3250;42.694;23.278;2023-06-22T01:51:59;10.18;;;7.45;;
6434;SDS011;3250;42.694;23.278;2023-06-22T01:54:25;12.70;;;7.85;;
6434;SDS011;3250;42.694;23.278;2023-06-22T01:56:50;11.65;;;7.82;;
6434;SDS011;3250;42.694;23.278;2023-06-22T02:02:11;9.35;;;7.75;;
6434;SDS011;3250;42.694;23.278;2023-06-22T02:04:44;24.73;;;8.32;;
6434;SDS011;3250;42.694;23.278;2023-06-22T02:07:14;13.23;;;7.75;;
6434;SDS011;3250;42.694;23.278;2023-06-22T02:09:43;12.27;;;8.75;;
6434;SDS011;3250;42.694;23.278;2023-06-22T02:12:11;12.43;;;9.18;;
6434;SDS011;3250;42.694;23.278;2023-06-22T02:14:38;13.48;;;9.45;;
6434;SDS011;3250;42.694;23.278;2023-06-22T02:17:08;18.70;;;10.40;;
6434;SDS011;3250;42.694;23.278;2023-06-22T02:19:38;18.92;;;9.27;;
6434;SDS011;3250;42.694;23.278;2023-06-22T02:22:06;12.88;;;8.75;;
6434;SDS011;3250;42.694;23.278;2023-06-22T02:24:31;14.90;;;9.63;;
6434;SDS011;3250;42.694;23.278;2023-06-22T02:26:58;18.08;;;9.85;;
6434;SDS011;3250;42.694;23.278;2023-06-22T02:29:24;15.80;;;9.25;;
6434;SDS011;3250;42.694;23.278;2023-06-22T02:31:50;12.40;;;9.20;;
6434;SDS011;3250;42.694;23.278;2023-06-22T02:34:15;15.05;;;9.30;;
6434;SDS011;3250;42.694;23.278;2023-06-22T02:36:46;24.10;;;10.00;;
6434;SDS011;3250;42.694;23.278;2023-06-22T02:39:17;18.42;;;9.50;;
6434;SDS011;3250;42.694;23.278;2023-06-22T02:41:44;18.73;;;9.68;;
6434;SDS011;3250;42.694;23.278;2023-06-22T02:44:10;13.48;;;9.00;;
6434;SDS011;3250;42.694;23.278;2023-06-22T02:46:35;21.17;;;11.35;;
6434;SDS011;3250;42.694;23.278;2023-06-22T02:49:01;15.43;;;9.63;;
6434;SDS011;3250;42.694;23.278;2023-06-22T02:51:26;16.70;;;9.63;;
6434;SDS011;3250;42.694;23.278;2023-06-22T02:53:52;12.48;;;9.27;;
6434;SDS011;3250;42.694;23.278;2023-06-22T02:56:22;16.52;;;8.70;;
6434;SDS011;3250;42.694;23.278;2023-06-22T02:58:50;12.20;;;9.45;;
6434;SDS011;3250;42.694;23.278;2023-06-22T03:01:16;12.95;;;9.40;;
6434;SDS011;3250;42.694;23.278;2023-06-22T03:03:41;13.85;;;9.18;;
6434;SDS011;3250;42.694;23.278;2023-06-22T03:06:07;13.90;;;10.13;;
6434;SDS011;3250;42.694;23.278;2023-06-22T03:08:32;14.02;;;9.68;;
6434;SDS011;3250;42.694;23.278;2023-06-22T03:10:58;20.33;;;10.35;;
6434;SDS011;3250;42.694;23.278;2023-06-22T03:13:23;14.52;;;9.82;;
6434;SDS011;3250;42.694;23.278;2023-06-22T03:15:49;20.55;;;10.77;;
6434;SDS011;3250;42.694;23.278;2023-06-22T03:18:14;24.83;;;10.05;;
6434;SDS011;3250;42.694;23.278;2023-06-22T03:20:40;18.48;;;10.43;;
6434;SDS011;3250;42.694;23.278;2023-06-22T03:23:06;16.13;;;10.27;;
6434;SDS011;3250;42.694;23.278;2023-06-22T03:25:31;17.38;;;10.07;;
6434;SDS011;3250;42.694;23.278;2023-06-22T03:27:58;18.08;;;9.57;;
6434;SDS011;3250;42.694;23.278;2023-06-22T03:30:26;19.15;;;9.82;;
6434;SDS011;3250;42.694;23.278;2023-06-22T03:32:51;21.88;;;10.20;;
6434;SDS011;3250;42.694;23.278;2023-06-22T03:35:16;17.55;;;9.60;;
6434;SDS011;3250;42.694;23.278;2023-06-22T03:37:42;14.48;;;9.75;;
6434;SDS011;3250;42.694;23.278;2023-06-22T03:40:07;14.50;;;9.93;;
6434;SDS011;3250;42.694;23.278;2023-06-22T03:42:33;13.05;;;8.85;;
6434;SDS011;3250;42.694;23.278;2023-06-22T03:45:02;10.15;;;8.63;;
6434;SDS011;3250;42.694;23.278;2023-06-22T03:47:28;12.65;;;8.05;;
6434;SDS011;3250;42.694;23.278;2023-06-22T03:49:54;12.05;;;8.38;;
6434;SDS011;3250;42.694;23.278;2023-06-22T03:52:20;13.88;;;8.93;;
6434;SDS011;3250;42.694;23.278;2023-06-22T03:54:46;12.38;;;8.40;;
6434;SDS011;3250;42.694;23.278;2023-06-22T03:57:12;17.33;;;8.48;;
6434;SDS011;3250;42.694;23.278;2023-06-22T03:59:37;12.00;;;7.82;;
6434;SDS011;3250;42.694;23.278;2023-06-22T04:02:03;18.83;;;8.57;;
6434;SDS011;3250;42.694;23.278;2023-06-22T04:04:28;15.35;;;7.85;;
6434;SDS011;3250;42.694;23.278;2023-06-22T04:06:54;23.60;;;9.68;;
6434;SDS011;3250;42.694;23.278;2023-06-22T04:09:19;15.40;;;7.32;;
6434;SDS011;3250;42.694;23.278;2023-06-22T04:11:46;15.90;;;8.95;;
6434;SDS011;3250;42.694;23.278;2023-06-22T04:14:12;13.45;;;8.20;;
6434;SDS011;3250;42.694;23.278;2023-06-22T04:16:37;10.10;;;7.80;;
6434;SDS011;3250;42.694;23.278;2023-06-22T04:19:02;11.68;;;7.82;;
6434;SDS011;3250;42.694;23.278;2023-06-22T04:21:28;9.50;;;7.40;;
6434;SDS011;3250;42.694;23.278;2023-06-22T04:23:53;15.05;;;8.65;;
6434;SDS011;3250;42.694;23.278;2023-06-22T04:26:19;11.70;;;7.90;;
6434;SDS011;3250;42.694;23.278;2023-06-22T04:28:46;14.23;;;8.32;;
6434;SDS011;3250;42.694;23.278;2023-06-22T04:31:16;22.75;;;8.40;;
6434;SDS011;3250;42.694;23.278;2023-06-22T04:33:42;16.75;;;8.43;;
6434;SDS011;3250;42.694;23.278;2023-06-22T04:36:07;16.02;;;8.02;;
6434;SDS011;3250;42.694;23.278;2023-06-22T04:38:32;12.68;;;7.18;;
6434;SDS011;3250;42.694;23.278;2023-06-22T04:40:58;13.05;;;8.20;;
6434;SDS011;3250;42.694;23.278;2023-06-22T04:43:26;16.70;;;8.73;;
6434;SDS011;3250;42.694;23.278;2023-06-22T04:45:55;12.95;;;7.82;;
6434;SDS011;3250;42.694;23.278;2023-06-22T04:48:20;11.63;;;7.35;;
6434;SDS011;3250;42.694;23.278;2023-06-22T04:50:46;11.18;;;7.72;;
6434;SDS011;3250;42.694;23.278;2023-06-22T04:53:11;12.82;;;7.95;;
6434;SDS011;3250;42.694;23.278;2023-06-22T04:55:37;12.30;;;7.45;;
6434;SDS011;3250;42.694;23.278;2023-06-22T04:58:06;23.27;;;8.13;;
6434;SDS011;3250;42.694;23.278;2023-06-22T05:00:32;10.63;;;6.90;;
6434;SDS011;3250;42.694;23.278;2023-06-22T05:03:01;12.38;;;8.75;;
6434;SDS011;3250;42.694;23.278;2023-06-22T05:05:28;9.25;;;7.30;;
6434;SDS011;3250;42.694;23.278;2023-06-22T05:07:56;11.65;;;9.18;;
6434;SDS011;3250;42.694;23.278;2023-06-22T05:10:24;13.35;;;10.02;;
6434;SDS011;3250;42.694;23.278;2023-06-22T05:12:50;14.70;;;10.52;;
6434;SDS011;3250;42.694;23.278;2023-06-22T05:15:18;18.85;;;10.07;;
6434;SDS011;3250;42.694;23.278;2023-06-22T05:17:51;11.35;;;9.30;;
6434;SDS011;3250;42.694;23.278;2023-06-22T05:20:17;14.25;;;10.55;;
6434;SDS011;3250;42.694;23.278;2023-06-22T05:22:43;12.02;;;9.77;;
6434;SDS011;3250;42.694;23.278;2023-06-22T05:25:09;10.68;;;8.45;;
6434;SDS011;3250;42.694;23.278;2023-06-22T05:27:36;11.00;;;8.07;;
6434;SDS011;3250;42.694;23.278;2023-06-22T05:30:05;12.57;;;8.30;;
6434;SDS011;3250;42.694;23.278;2023-06-22T05:32:31;11.90;;;7.95;;
6434;SDS011;3250;42.694;23.278;2023-06-22T05:34:57;9.88;;;8.30;;
6434;SDS011;3250;42.694;23.278;2023-06-22T05:37:22;16.55;;;8.07;;
6434;SDS011;3250;42.694;23.278;2023-06-22T05:39:48;13.65;;;7.53;;
6434;SDS011;3250;42.694;23.278;2023-06-22T05:42:13;9.90;;;7.63;;
6434;SDS011;3250;42.694;23.278;2023-06-22T05:44:39;9.10;;;7.43;;
6434;SDS011;3250;42.694;23.278;2023-06-22T05:47:05;10.10;;;7.80;;
6434;SDS011;3250;42.694;23.278;2023-06-22T05:49:31;16.23;;;8.55;;
6434;SDS011;3250;42.694;23.278;2023-06-22T05:51:58;11.52;;;7.75;;
6434;SDS011;3250;42.694;23.278;2023-06-22T05:54:24;12.95;;;7.55;;
6434;SDS011;3250;42.694;23.278;2023-06-22T05:56:50;9.10;;;7.85;;
6434;SDS011;3250;42.694;23.278;2023-06-22T05:59:15;11.30;;;8.80;;
6434;SDS011;3250;42.694;23.278;2023-06-22T06:01:40;11.55;;;8.52;;
6434;SDS011;3250;42.694;23.278;2023-06-22T06:04:06;16.83;;;10.50;;
6434;SDS011;3250;42.694;23.278;2023-06-22T06:06:34;16.67;;;9.00;;
6434;SDS011;3250;42.694;23.278;2023-06-22T06:09:02;14.60;;;9.10;;
6434;SDS011;3250;42.694;23.278;2023-06-22T06:11:28;15.23;;;9.27;;
6434;SDS011;3250;42.694;23.278;2023-06-22T06:13:54;13.73;;;9.85;;
6434;SDS011;3250;42.694;23.278;2023-06-22T06:16:19;15.85;;;8.82;;
6434;SDS011;3250;42.694;23.278;2023-06-22T06:18:45;22.17;;;9.43;;
6434;SDS011;3250;42.694;23.278;2023-06-22T06:21:10;9.63;;;7.88;;
6434;SDS011;3250;42.694;23.278;2023-06-22T06:23:35;18.90;;;8.10;;
6434;SDS011;3250;42.694;23.278;2023-06-22T06:26:01;12.40;;;7.80;;
6434;SDS011;3250;42.694;23.278;2023-06-22T06:28:26;17.67;;;8.77;;
6434;SDS011;3250;42.694;23.278;2023-06-22T06:30:52;17.48;;;8.30;;
6434;SDS011;3250;42.694;23.278;2023-06-22T06:33:17;10.57;;;7.80;;
6434;SDS011;3250;42.694;23.278;2023-06-22T06:35:43;14.80;;;7.75;;
6434;SDS011;3250;42.694;23.278;2023-06-22T06:38:08;10.57;;;7.32;;
6434;SDS011;3250;42.694;23.278;2023-06-22T06:40:34;10.07;;;8.07;;
6434;SDS011;3250;42.694;23.278;2023-06-22T06:42:59;11.95;;;8.10;;
6434;SDS011;3250;42.694;23.278;2023-06-22T06:45:24;11.02;;;8.05;;
6434;SDS011;3250;42.694;23.278;2023-06-22T06:47:53;11.15;;;7.90;;
6434;SDS011;3250;42.694;23.278;2023-06-22T06:50:19;18.52;;;8.60;;
6434;SDS011;3250;42.694;23.278;2023-06-22T06:52:45;13.50;;;7.70;;
6434;SDS011;3250;42.694;23.278;2023-06-22T06:55:10;11.00;;;7.13;;
6434;SDS011;3250;42.694;23.278;2023-06-22T06:57:37;11.38;;;7.45;;
6434;SDS011;3250;42.694;23.278;2023-06-22T07:00:06;10.60;;;7.95;;
6434;SDS011;3250;42.694;23.278;2023-06-22T07:02:37;11.30;;;7.80;;
6434;SDS011;3250;42.694;23.278;2023-06-22T07:05:04;9.98;;;7.47;;
6434;SDS011;3250;42.694;23.278;2023-06-22T07:07:29;12.02;;;7.38;;
6434;SDS011;3250;42.694;23.278;2023-06-22T07:09:55;11.48;;;8.30;;
6434;SDS011;3250;42.694;23.278;2023-06-22T07:12:20;16.08;;;8.13;;
6434;SDS011;3250;42.694;23.278;2023-06-22T07:14:46;15.88;;;7.90;;
6434;SDS011;3250;42.694;23.278;2023-06-22T07:17:11;14.95;;;8.35;;
6434;SDS011;3250;42.694;23.278;2023-06-22T07:19:37;16.58;;;8.30;;
6434;SDS011;3250;42.694;23.278;2023-06-22T07:22:02;11.52;;;7.00;;
6434;SDS011;3250;42.694;23.278;2023-06-22T07:24:28;17.77;;;7.32;;
6434;SDS011;3250;42.694;23.278;2023-06-22T07:26:54;11.57;;;8.52;;
6434;SDS011;3250;42.694;23.278;2023-06-22T07:29:24;13.57;;;7.82;;
6434;SDS011;3250;42.694;23.278;2023-06-22T07:31:52;15.13;;;7.30;;
6434;SDS011;3250;42.694;23.278;2023-06-22T07:34:17;11.00;;;7.40;;
6434;SDS011;3250;42.694;23.278;2023-06-22T07:36:44;9.20;;;8.20;;
6434;SDS011;3250;42.694;23.278;2023-06-22T07:39:09;17.67;;;8.02;;
6434;SDS011;3250;42.694;23.278;2023-06-22T07:41:36;15.57;;;8.07;;
6434;SDS011;3250;42.694;23.278;2023-06-22T07:44:02;10.57;;;8.07;;
6434;SDS011;3250;42.694;23.278;2023-06-22T07:46:28;11.57;;;7.78;;
6434;SDS011;3250;42.694;23.278;2023-06-22T07:48:55;9.48;;;7.80;;
6434;SDS011;3250;42.694;23.278;2023-06-22T07:51:24;11.13;;;6.80;;
6434;SDS011;3250;42.694;23.278;2023-06-22T07:53:50;10.82;;;7.60;;
6434;SDS011;3250;42.694;23.278;2023-06-22T07:56:16;8.68;;;7.43;;
6434;SDS011;3250;42.694;23.278;2023-06-22T07:58:45;7.72;;;6.93;;
6434;SDS011;3250;42.694;23.278;2023-06-22T08:01:11;9.90;;;7.50;;
6434;SDS011;3250;42.694;23.278;2023-06-22T08:03:37;13.05;;;7.53;;
6434;SDS011;3250;42.694;23.278;2023-06-22T08:06:02;10.50;;;7.85;;
6434;SDS011;3250;42.694;23.278;2023-06-22T08:08:28;10.18;;;7.45;;
6434;SDS011;3250;42.694;23.278;2023-06-22T08:10:53;11.85;;;7.60;;
6434;SDS011;3250;42.694;23.278;2023-06-22T08:13:19;8.30;;;7.50;;
6434;SDS011;3250;42.694;23.278;2023-06-22T08:15:45;9.20;;;7.22;;
6434;SDS011;3250;42.694;23.278;2023-06-22T08:18:10;8.23;;;7.28;;
6434;SDS011;3250;42.694;23.278;2023-06-22T08:20:35;9.90;;;6.93;;
6434;SDS011;3250;42.694;23.278;2023-06-22T08:23:01;9.82;;;7.47;;
6434;SDS011;3250;42.694;23.278;2023-06-22T08:25:31;12.40;;;7.03;;
6434;SDS011;3250;42.694;23.278;2023-06-22T08:27:57;11.18;;;7.35;;
6434;SDS011;3250;42.694;23.278;2023-06-22T08:30:23;10.82;;;8.32;;
6434;SDS011;3250;42.694;23.278;2023-06-22T08:32:48;9.00;;;7.03;;
6434;SDS011;3250;42.694;23.278;2023-06-22T08:35:14;7.93;;;6.80;;
6434;SDS011;3250;42.694;23.278;2023-06-22T08:37:39;11.02;;;6.70;;
6434;SDS011;3250;42.694;23.278;2023-06-22T08:40:06;8.15;;;7.30;;
6434;SDS011;3250;42.694;23.278;2023-06-22T08:42:34;11.68;;;7.07;;
6434;SDS011;3250;42.694;23.278;2023-06-22T08:45:00;18.17;;;8.20;;
6434;SDS011;3250;42.694;23.278;2023-06-22T08:47:27;9.05;;;6.80;;
6434;SDS011;3250;42.694;23.278;2023-06-22T08:49:52;7.35;;;6.50;;
6434;SDS011;3250;42.694;23.278;2023-06-22T08:52:18;10.43;;;6.70;;
6434;SDS011;3250;42.694;23.278;2023-06-22T08:54:45;7.35;;;6.35;;
6434;SDS011;3250;42.694;23.278;2023-06-22T08:57:10;7.80;;;6.47;;
6434;SDS011;3250;42.694;23.278;2023-06-22T08:59:36;7.78;;;6.22;;
6434;SDS011;3250;42.694;23.278;2023-06-22T09:02:01;8.32;;;6.70;;
6434;SDS011;3250;42.694;23.278;2023-06-22T09:04:26;7.05;;;6.00;;
6434;SDS011;3250;42.694;23.278;2023-06-22T09:06:52;7.65;;;6.32;;
6434;SDS011;3250;42.694;23.278;2023-06-22T09:09:18;7.15;;;6.05;;
6434;SDS011;3250;42.694;23.278;2023-06-22T09:11:43;11.27;;;6.13;;
6434;SDS011;3250;42.694;23.278;2023-06-22T09:14:10;8.25;;;5.88;;
6434;SDS011;3250;42.694;23.278;2023-06-22T09:16:36;8.55;;;6.85;;
6434;SDS011;3250;42.694;23.278;2023-06-22T09:19:01;8.48;;;6.00;;
6434;SDS011;3250;42.694;23.278;2023-06-22T09:21:27;12.15;;;6.30;;
6434;SDS011;3250;42.694;23.278;2023-06-22T09:23:53;6.72;;;6.03;;
6434;SDS011;3250;42.694;23.278;2023-06-22T09:26:18;11.75;;;6.70;;
6434;SDS011;3250;42.694;23.278;2023-06-22T09:28:44;10.60;;;6.05;;
6434;SDS011;3250;42.694;23.278;2023-06-22T09:31:10;6.43;;;5.63;;
6434;SDS011;3250;42.694;23.278;2023-06-22T09:33:36;8.55;;;6.78;;
6434;SDS011;3250;42.694;23.278;2023-06-22T09:36:03;8.60;;;6.60;;
6434;SDS011;3250;42.694;23.278;2023-06-22T09:38:33;7.38;;;6.60;;
6434;SDS011;3250;42.694;23.278;2023-06-22T09:41:00;9.15;;;6.53;;
6434;SDS011;3250;42.694;23.278;2023-06-22T09:43:25;11.52;;;7.40;;
6434;SDS011;3250;42.694;23.278;2023-06-22T09:45:50;9.05;;;6.28;;
6434;SDS011;3250;42.694;23.278;2023-06-22T09:48:16;11.20;;;6.47;;
6434;SDS011;3250;42.694;23.278;2023-06-22T09:50:41;11.00;;;7.28;;
6434;SDS011;3250;42.694;23.278;2023-06-22T09:53:07;9.75;;;7.25;;
6434;SDS011;3250;42.694;23.278;2023-06-22T09:55:32;9.32;;;7.18;;
6434;SDS011;3250;42.694;23.278;2023-06-22T09:57:58;10.18;;;6.72;;
6434;SDS011;3250;42.694;23.278;2023-06-22T10:00:23;9.13;;;6.60;;
6434;SDS011;3250;42.694;23.278;2023-06-22T10:02:49;8.35;;;6.55;;
6434;SDS011;3250;42.694;23.278;2023-06-22T10:05:15;8.68;;;6.47;;
6434;SDS011;3250;42.694;23.278;2023-06-22T10:07:41;9.38;;;6.70;;
6434;SDS011;3250;42.694;23.278;2023-06-22T10:10:08;13.25;;;7.07;;
6434;SDS011;3250;42.694;23.278;2023-06-22T10:12:34;7.65;;;6.72;;
6434;SDS011;3250;42.694;23.278;2023-06-22T10:15:00;12.18;;;7.40;;
6434;SDS011;3250;42.694;23.278;2023-06-22T10:17:25;10.63;;;6.90;;
6434;SDS011;3250;42.694;23.278;2023-06-22T10:19:50;10.48;;;7.28;;
6434;SDS011;3250;42.694;23.278;2023-06-22T10:22:16;9.57;;;6.60;;
6434;SDS011;3250;42.694;23.278;2023-06-22T10:24:41;9.38;;;6.70;;
6434;SDS011;3250;42.694;23.278;2023-06-22T10:27:12;7.88;;;6.75;;
6434;SDS011;3250;42.694;23.278;2023-06-22T10:29:38;10.60;;;6.25;;
6434;SDS011;3250;42.694;23.278;2023-06-22T10:32:04;7.10;;;6.40;;
6434;SDS011;3250;42.694;23.278;2023-06-22T10:34:30;6.80;;;5.95;;
6434;SDS011;3250;42.694;23.278;2023-06-22T10:36:55;8.00;;;6.78;;
6434;SDS011;3250;42.694;23.278;2023-06-22T10:39:21;8.98;;;6.47;;
6434;SDS011;3250;42.694;23.278;2023-06-22T10:41:46;9.18;;;6.72;;
6434;SDS011;3250;42.694;23.278;2023-06-22T10:44:11;8.00;;;6.88;;
6434;SDS011;3250;42.694;23.278;2023-06-22T10:46:38;9.85;;;6.13;;
6434;SDS011;3250;42.694;23.278;2023-06-22T10:49:04;16.85;;;7.47;;
6434;SDS011;3250;42.694;23.278;2023-06-22T10:51:29;8.75;;;7.13;;
6434;SDS011;3250;42.694;23.278;2023-06-22T10:53:57;10.23;;;7.30;;
6434;SDS011;3250;42.694;23.278;2023-06-22T10:56:23;10.70;;;6.40;;
6434;SDS011;3250;42.694;23.278;2023-06-22T10:58:49;7.80;;;6.47;;
6434;SDS011;3250;42.694;23.278;2023-06-22T11:01:14;8.85;;;6.45;;
6434;SDS011;3250;42.694;23.278;2023-06-22T11:03:40;8.68;;;6.47;;
6434;SDS011;3250;42.694;23.278;2023-06-22T11:06:06;7.40;;;6.10;;
6434;SDS011;3250;42.694;23.278;2023-06-22T11:08:31;7.05;;;5.85;;
6434;SDS011;3250;42.694;23.278;2023-06-22T11:10:56;18.40;;;6.57;;
6434;SDS011;3250;42.694;23.278;2023-06-22T11:13:22;8.05;;;6.35;;
6434;SDS011;3250;42.694;23.278;2023-06-22T11:15:47;7.43;;;6.65;;
6434;SDS011;3250;42.694;23.278;2023-06-22T11:18:12;7.93;;;6.55;;
6434;SDS011;3250;42.694;23.278;2023-06-22T11:20:38;12.77;;;6.50;;
6434;SDS011;3250;42.694;23.278;2023-06-22T11:23:06;9.30;;;6.72;;
6434;SDS011;3250;42.694;23.278;2023-06-22T11:25:32;9.45;;;6.40;;
6434;SDS011;3250;42.694;23.278;2023-06-22T11:28:00;8.70;;;6.60;;
6434;SDS011;3250;42.694;23.278;2023-06-22T11:30:28;10.43;;;6.82;;
6434;SDS011;3250;42.694;23.278;2023-06-22T11:32:54;9.65;;;6.57;;
6434;SDS011;3250;42.694;23.278;2023-06-22T11:35:19;6.90;;;6.22;;
6434;SDS011;3250;42.694;23.278;2023-06-22T11:37:45;7.70;;;6.90;;
6434;SDS011;3250;42.694;23.278;2023-06-22T11:40:10;9.75;;;6.35;;
6434;SDS011;3250;42.694;23.278;2023-06-22T11:42:36;12.68;;;7.43;;
6434;SDS011;3250;42.694;23.278;2023-06-22T11:45:02;9.52;;;6.32;;
6434;SDS011;3250;42.694;23.278;2023-06-22T11:47:30;12.02;;;6.47;;
6434;SDS011;3250;42.694;23.278;2023-06-22T11:49:56;8.68;;;6.88;;
6434;SDS011;3250;42.694;23.278;2023-06-22T11:52:21;9.10;;;7.90;;
6434;SDS011;3250;42.694;23.278;2023-06-22T11:54:47;10.38;;;7.50;;
6434;SDS011;3250;42.694;23.278;2023-06-22T11:57:12;9.35;;;7.20;;
6434;SDS011;3250;42.694;23.278;2023-06-22T11:59:40;10.30;;;6.75;;
6434;SDS011;3250;42.694;23.278;2023-06-22T12:02:05;10.90;;;7.30;;
6434;SDS011;3250;42.694;23.278;2023-06-22T12:04:32;10.32;;;6.63;;
6434;SDS011;3250;42.694;23.278;2023-06-22T12:06:58;11.82;;;8.05;;
6434;SDS011;3250;42.694;23.278;2023-06-22T12:09:25;15.25;;;8.00;;
6434;SDS011;3250;42.694;23.278;2023-06-22T12:11:53;15.85;;;11.20;;
6434;SDS011;3250;42.694;23.278;2023-06-22T12:14:18;15.45;;;8.90;;
6434;SDS011;3250;42.694;23.278;2023-06-22T12:16:43;10.65;;;9.00;;
6434;SDS011;3250;42.694;23.278;2023-06-22T12:19:09;13.50;;;8.50;;
6434;SDS011;3250;42.694;23.278;2023-06-22T12:21:38;12.52;;;8.13;;
6434;SDS011;3250;42.694;23.278;2023-06-22T12:24:05;14.75;;;8.05;;
6434;SDS011;3250;42.694;23.278;2023-06-22T12:26:31;10.23;;;7.50;;
6434;SDS011;3250;42.694;23.278;2023-06-22T12:28:56;15.98;;;9.00;;
6434;SDS011;3250;42.694;23.278;2023-06-22T12:31:22;9.35;;;7.47;;
6434;SDS011;3250;42.694;23.278;2023-06-22T12:33:47;11.05;;;7.53;;
6434;SDS011;3250;42.694;23.278;2023-06-22T12:36:13;14.77;;;7.00;;
6434;SDS011;3250;42.694;23.278;2023-06-22T12:38:38;10.05;;;6.43;;
6434;SDS011;3250;42.694;23.278;2023-06-22T12:41:04;9.35;;;6.65;;
6434;SDS011;3250;42.694;23.278;2023-06-22T12:43:29;9.32;;;5.95;;
6434;SDS011;3250;42.694;23.278;2023-06-22T12:45:54;11.43;;;6.03;;
6434;SDS011;3250;42.694;23.278;2023-06-22T12:48:21;12.45;;;5.85;;
6434;SDS011;3250;42.694;23.278;2023-06-22T12:50:47;9.13;;;5.22;;
6434;SDS011;3250;42.694;23.278;2023-06-22T12:53:13;13.90;;;5.55;;
6434;SDS011;3250;42.694;23.278;2023-06-22T12:55:38;12.35;;;5.35;;
6434;SDS011;3250;42.694;23.278;2023-06-22T12:58:03;10.40;;;4.63;;
6434;SDS011;3250;42.694;23.278;2023-06-22T13:00:29;10.20;;;5.22;;
6434;SDS011;3250;42.694;23.278;2023-06-22T13:02:54;10.52;;;4.82;;
6434;SDS011;3250;42.694;23.278;2023-06-22T13:05:19;13.43;;;6.30;;
6434;SDS011;3250;42.694;23.278;2023-06-22T13:07:45;7.78;;;5.50;;
6434;SDS011;3250;42.694;23.278;2023-06-22T13:10:11;10.48;;;5.70;;
6434;SDS011;3250;42.694;23.278;2023-06-22T13:12:36;8.82;;;5.28;;
6434;SDS011;3250;42.694;23.278;2023-06-22T13:15:01;7.30;;;5.70;;
6434;SDS011;3250;42.694;23.278;2023-06-22T13:17:28;16.60;;;6.13;;
6434;SDS011;3250;42.694;23.278;2023-06-22T13:19:53;11.45;;;5.57;;
6434;SDS011;3250;42.694;23.278;2023-06-22T13:22:52;7.72;;;5.05;;
6434;SDS011;3250;42.694;23.278;2023-06-22T13:25:11;12.30;;;6.10;;
6434;SDS011;3250;42.694;23.278;2023-06-22T13:27:38;10.82;;;4.90;;
6434;SDS011;3250;42.694;23.278;2023-06-22T13:30:04;13.50;;;6.88;;
6434;SDS011;3250;42.694;23.278;2023-06-22T13:32:30;9.48;;;6.40;;
6434;SDS011;3250;42.694;23.278;2023-06-22T13:34:55;11.73;;;6.78;;
6434;SDS011;3250;42.694;23.278;2023-06-22T13:37:21;12.18;;;8.02;;
6434;SDS011;3250;42.694;23.278;2023-06-22T13:39:46;10.80;;;6.00;;
6434;SDS011;3250;42.694;23.278;2023-06-22T13:42:11;11.57;;;6.03;;
6434;SDS011;3250;42.694;23.278;2023-06-22T13:44:37;9.73;;;6.00;;
6434;SDS011;3250;42.694;23.278;2023-06-22T13:47:02;8.93;;;5.88;;
6434;SDS011;3250;42.694;23.278;2023-06-22T13:49:29;11.13;;;6.22;;
6434;SDS011;3250;42.694;23.278;2023-06-22T13:51:55;9.23;;;5.97;;
6434;SDS011;3250;42.694;23.278;2023-06-22T13:54:20;10.73;;;7.15;;
6434;SDS011;3250;42.694;23.278;2023-06-22T13:56:46;11.02;;;7.55;;
6434;SDS011;3250;42.694;23.278;2023-06-22T13:59:11;9.45;;;7.22;;
6434;SDS011;3250;42.694;23.278;2023-06-22T14:01:37;16.55;;;12.45;;
6434;SDS011;3250;42.694;23.278;2023-06-22T14:04:04;10.55;;;7.00;;
6434;SDS011;3250;42.694;23.278;2023-06-22T14:06:30;9.10;;;6.65;;
6434;SDS011;3250;42.694;23.278;2023-06-22T14:08:55;8.40;;;6.22;;
6434;SDS011;3250;42.694;23.278;2023-06-22T14:11:21;15.25;;;8.80;;
6434;SDS011;3250;42.694;23.278;2023-06-22T14:13:47;10.98;;;7.63;;
6434;SDS011;3250;42.694;23.278;2023-06-22T14:16:12;11.40;;;6.85;;
6434;SDS011;3250;42.694;23.278;2023-06-22T14:18:37;10.52;;;7.60;;
6434;SDS011;3250;42.694;23.278;2023-06-22T14:21:03;14.45;;;9.20;;
6434;SDS011;3250;42.694;23.278;2023-06-22T14:23:29;12.52;;;7.45;;
6434;SDS011;3250;42.694;23.278;2023-06-22T14:25:54;14.77;;;8.48;;
6434;SDS011;3250;42.694;23.278;2023-06-22T14:28:19;12.25;;;8.30;;
6434;SDS011;3250;42.694;23.278;2023-06-22T14:30:45;28.17;;;16.30;;
6434;SDS011;3250;42.694;23.278;2023-06-22T14:33:11;13.02;;;9.02;;
6434;SDS011;3250;42.694;23.278;2023-06-22T14:35:37;18.85;;;10.90;;
6434;SDS011;3250;42.694;23.278;2023-06-22T14:38:02;14.18;;;8.73;;
6434;SDS011;3250;42.694;23.278;2023-06-22T14:40:29;18.13;;;10.13;;
6434;SDS011;3250;42.694;23.278;2023-06-22T14:42:54;21.48;;;10.48;;
6434;SDS011;3250;42.694;23.278;2023-06-22T14:45:23;13.57;;;8.30;;
6434;SDS011;3250;42.694;23.278;2023-06-22T14:47:48;15.23;;;9.05;;
6434;SDS011;3250;42.694;23.278;2023-06-22T14:50:14;13.75;;;9.73;;
6434;SDS011;3250;42.694;23.278;2023-06-22T14:52:39;15.68;;;10.65;;